sensor_id;sensor_type;location;lat;lon;timestamp;P1;durP1;ratioP1;P2;durP2;ratioP2
25163;SDS011;13440;50.860;13.662;2022-11-21T00:00:22;17.73;;;11.73;;
25163;SDS011;13440;50.860;13.662;2022-11-21T00:02:47;16.33;;;11.30;;
25163;SDS011;13440;50.860;13.662;2022-11-21T00:05:13;18.00;;;11.70;;
25163;SDS011;13440;50.860;13.662;2022-11-21T00:07:38;16.25;;;11.55;;
25163;SDS011;13440;50.860;13.662;2022-11-21T00:10:03;19.67;;;12.15;;
25163;SDS011;13440;50.860;13.662;2022-11-21T00:12:29;19.20;;;12.35;;
25163;SDS011;13440;50.860;13.662;2022-11-21T00:14:54;18.63;;;12.07;;
25163;SDS011;13440;50.860;13.662;2022-11-21T00:17:19;20.67;;;12.75;;
25163;SDS011;13440;50.860;13.662;2022-11-21T00:19:44;13.73;;;9.07;;
25163;SDS011;13440;50.860;13.662;2022-11-21T00:22:10;10.85;;;7.30;;
25163;SDS011;13440;50.860;13.662;2022-11-21T00:24:35;11.82;;;7.55;;
25163;SDS011;13440;50.860;13.662;2022-11-21T00:27:00;12.25;;;7.38;;
25163;SDS011;13440;50.860;13.662;2022-11-21T00:29:26;10.55;;;6.80;;
25163;SDS011;13440;50.860;13.662;2022-11-21T00:31:51;11.38;;;6.95;;
25163;SDS011;13440;50.860;13.662;2022-11-21T00:34:16;9.88;;;6.38;;
25163;SDS011;13440;50.860;13.662;2022-11-21T00:36:42;10.02;;;6.88;;
25163;SDS011;13440;50.860;13.662;2022-11-21T00:39:07;9.50;;;6.97;;
25163;SDS011;13440;50.860;13.662;2022-11-21T00:41:32;12.52;;;7.10;;
25163;SDS011;13440;50.860;13.662;2022-11-21T00:43:57;8.60;;;6.00;;
25163;SDS011;13440;50.860;13.662;2022-11-21T00:46:23;9.70;;;6.60;;
25163;SDS011;13440;50.860;13.662;2022-11-21T00:48:48;10.10;;;6.55;;
25163;SDS011;13440;50.860;13.662;2022-11-21T00:51:13;9.85;;;6.60;;
25163;SDS011;13440;50.860;13.662;2022-11-21T00:53:38;11.25;;;6.43;;
25163;SDS011;13440;50.860;13.662;2022-11-21T00:56:04;8.90;;;6.25;;
25163;SDS011;13440;50.860;13.662;2022-11-21T00:58:29;10.85;;;6.68;;
25163;SDS011;13440;50.860;13.662;2022-11-21T01:03:49;7.75;;;5.47;;
25163;SDS011;13440;50.860;13.662;2022-11-21T01:06:14;10.82;;;6.25;;
25163;SDS011;13440;50.860;13.662;2022-11-21T01:08:41;6.85;;;4.93;;
25163;SDS011;13440;50.860;13.662;2022-11-21T01:11:08;7.85;;;5.28;;
25163;SDS011;13440;50.860;13.662;2022-11-21T01:13:34;10.52;;;6.20;;
25163;SDS011;13440;50.860;13.662;2022-11-21T01:16:03;7.68;;;5.18;;
25163;SDS011;13440;50.860;13.662;2022-11-21T01:18:28;8.38;;;5.45;;
25163;SDS011;13440;50.860;13.662;2022-11-21T01:20:57;8.35;;;5.28;;
25163;SDS011;13440;50.860;13.662;2022-11-21T01:23:23;8.15;;;5.35;;
25163;SDS011;13440;50.860;13.662;2022-11-21T01:25:48;7.40;;;5.20;;
25163;SDS011;13440;50.860;13.662;2022-11-21T01:28:13;8.40;;;5.55;;
25163;SDS011;13440;50.860;13.662;2022-11-21T01:30:38;8.63;;;6.05;;
25163;SDS011;13440;50.860;13.662;2022-11-21T01:33:04;7.28;;;5.40;;
25163;SDS011;13440;50.860;13.662;2022-11-21T01:35:29;7.97;;;5.70;;
25163;SDS011;13440;50.860;13.662;2022-11-21T01:37:54;8.48;;;5.78;;
25163;SDS011;13440;50.860;13.662;2022-11-21T01:40:19;9.23;;;5.95;;
25163;SDS011;13440;50.860;13.662;2022-11-21T01:42:50;11.75;;;6.10;;
25163;SDS011;13440;50.860;13.662;2022-11-21T01:48:21;7.40;;;5.43;;
25163;SDS011;13440;50.860;13.662;2022-11-21T01:50:47;8.10;;;5.80;;
25163;SDS011;13440;50.860;13.662;2022-11-21T01:53:12;9.20;;;5.85;;
25163;SDS011;13440;50.860;13.662;2022-11-21T01:55:37;7.28;;;5.00;;
25163;SDS011;13440;50.860;13.662;2022-11-21T01:58:03;7.07;;;5.20;;
25163;SDS011;13440;50.860;13.662;2022-11-21T02:00:30;6.68;;;5.10;;
25163;SDS011;13440;50.860;13.662;2022-11-21T02:02:57;6.82;;;4.88;;
25163;SDS011;13440;50.860;13.662;2022-11-21T02:05:25;5.68;;;4.10;;
25163;SDS011;13440;50.860;13.662;2022-11-21T02:07:51;4.25;;;3.50;;
25163;SDS011;13440;50.860;13.662;2022-11-21T02:10:18;5.15;;;3.70;;
25163;SDS011;13440;50.860;13.662;2022-11-21T02:12:48;6.10;;;3.67;;
25163;SDS011;13440;50.860;13.662;2022-11-21T02:15:13;4.28;;;3.17;;
25163;SDS011;13440;50.860;13.662;2022-11-21T02:17:39;4.38;;;3.10;;
25163;SDS011;13440;50.860;13.662;2022-11-21T02:20:05;4.40;;;3.00;;
25163;SDS011;13440;50.860;13.662;2022-11-21T02:27:31;7.97;;;3.65;;
25163;SDS011;13440;50.860;13.662;2022-11-21T02:29:56;5.85;;;3.97;;
25163;SDS011;13440;50.860;13.662;2022-11-21T02:32:22;5.95;;;4.07;;
25163;SDS011;13440;50.860;13.662;2022-11-21T02:34:47;6.38;;;3.92;;
25163;SDS011;13440;50.860;13.662;2022-11-21T02:37:13;8.32;;;5.00;;
25163;SDS011;13440;50.860;13.662;2022-11-21T02:39:38;7.88;;;5.13;;
25163;SDS011;13440;50.860;13.662;2022-11-21T02:42:22;14.65;;;7.43;;
25163;SDS011;13440;50.860;13.662;2022-11-21T02:44:52;13.77;;;7.25;;
25163;SDS011;13440;50.860;13.662;2022-11-21T02:47:20;12.45;;;6.40;;
25163;SDS011;13440;50.860;13.662;2022-11-21T02:49:52;8.57;;;5.22;;
25163;SDS011;13440;50.860;13.662;2022-11-21T02:52:19;11.50;;;6.40;;
25163;SDS011;13440;50.860;13.662;2022-11-21T02:54:44;14.05;;;7.20;;
25163;SDS011;13440;50.860;13.662;2022-11-21T02:57:10;16.85;;;9.02;;
25163;SDS011;13440;50.860;13.662;2022-11-21T02:59:35;7.82;;;5.80;;
25163;SDS011;13440;50.860;13.662;2022-11-21T03:02:00;11.00;;;6.35;;
25163;SDS011;13440;50.860;13.662;2022-11-21T03:04:26;5.38;;;3.80;;
25163;SDS011;13440;50.860;13.662;2022-11-21T03:06:51;3.90;;;3.08;;
25163;SDS011;13440;50.860;13.662;2022-11-21T03:09:16;5.22;;;4.03;;
25163;SDS011;13440;50.860;13.662;2022-11-21T03:11:42;6.57;;;4.03;;
25163;SDS011;13440;50.860;13.662;2022-11-21T03:14:07;4.13;;;3.30;;
25163;SDS011;13440;50.860;13.662;2022-11-21T03:16:32;4.07;;;3.25;;
25163;SDS011;13440;50.860;13.662;2022-11-21T03:18:57;4.47;;;3.92;;
25163;SDS011;13440;50.860;13.662;2022-11-21T03:21:23;5.93;;;3.88;;
25163;SDS011;13440;50.860;13.662;2022-11-21T03:23:48;4.30;;;3.17;;
25163;SDS011;13440;50.860;13.662;2022-11-21T03:26:14;8.02;;;5.88;;
25163;SDS011;13440;50.860;13.662;2022-11-21T03:28:40;5.57;;;3.00;;
25163;SDS011;13440;50.860;13.662;2022-11-21T03:31:05;4.50;;;3.03;;
25163;SDS011;13440;50.860;13.662;2022-11-21T03:33:30;4.53;;;3.42;;
25163;SDS011;13440;50.860;13.662;2022-11-21T03:35:55;4.28;;;3.10;;
25163;SDS011;13440;50.860;13.662;2022-11-21T03:38:21;3.95;;;3.05;;
25163;SDS011;13440;50.860;13.662;2022-11-21T03:40:46;4.40;;;3.08;;
25163;SDS011;13440;50.860;13.662;2022-11-21T03:43:11;6.30;;;3.53;;
25163;SDS011;13440;50.860;13.662;2022-11-21T03:45:37;5.82;;;3.45;;
25163;SDS011;13440;50.860;13.662;2022-11-21T03:48:02;3.40;;;3.03;;
25163;SDS011;13440;50.860;13.662;2022-11-21T03:50:27;4.38;;;3.13;;
25163;SDS011;13440;50.860;13.662;2022-11-21T03:52:52;12.48;;;8.13;;
25163;SDS011;13440;50.860;13.662;2022-11-21T03:55:18;3.65;;;2.85;;
25163;SDS011;13440;50.860;13.662;2022-11-21T03:57:43;4.90;;;4.18;;
25163;SDS011;13440;50.860;13.662;2022-11-21T04:00:08;4.00;;;2.92;;
25163;SDS011;13440;50.860;13.662;2022-11-21T04:02:34;3.47;;;2.65;;
25163;SDS011;13440;50.860;13.662;2022-11-21T04:04:59;5.93;;;2.78;;
25163;SDS011;13440;50.860;13.662;2022-11-21T04:07:24;3.83;;;2.47;;
25163;SDS011;13440;50.860;13.662;2022-11-21T04:09:50;3.20;;;2.65;;
25163;SDS011;13440;50.860;13.662;2022-11-21T04:12:15;4.40;;;3.78;;
25163;SDS011;13440;50.860;13.662;2022-11-21T04:14:40;4.78;;;4.28;;
25163;SDS011;13440;50.860;13.662;2022-11-21T04:17:05;4.07;;;2.80;;
25163;SDS011;13440;50.860;13.662;2022-11-21T04:19:30;4.50;;;3.10;;
25163;SDS011;13440;50.860;13.662;2022-11-21T04:21:56;3.20;;;2.47;;
25163;SDS011;13440;50.860;13.662;2022-11-21T04:24:21;4.82;;;2.22;;
25163;SDS011;13440;50.860;13.662;2022-11-21T04:26:46;3.80;;;2.92;;
25163;SDS011;13440;50.860;13.662;2022-11-21T04:29:12;3.80;;;2.97;;
25163;SDS011;13440;50.860;13.662;2022-11-21T04:31:37;2.75;;;1.90;;
25163;SDS011;13440;50.860;13.662;2022-11-21T04:34:02;2.20;;;1.88;;
25163;SDS011;13440;50.860;13.662;2022-11-21T04:36:28;9.80;;;6.45;;
25163;SDS011;13440;50.860;13.662;2022-11-21T04:38:53;4.28;;;2.45;;
25163;SDS011;13440;50.860;13.662;2022-11-21T04:41:18;3.58;;;2.42;;
25163;SDS011;13440;50.860;13.662;2022-11-21T04:43:43;2.03;;;1.83;;
25163;SDS011;13440;50.860;13.662;2022-11-21T04:46:09;2.63;;;1.70;;
25163;SDS011;13440;50.860;13.662;2022-11-21T04:48:34;1.92;;;1.50;;
25163;SDS011;13440;50.860;13.662;2022-11-21T04:50:59;2.80;;;2.30;;
25163;SDS011;13440;50.860;13.662;2022-11-21T04:53:25;2.40;;;1.65;;
25163;SDS011;13440;50.860;13.662;2022-11-21T04:55:50;2.42;;;1.77;;
25163;SDS011;13440;50.860;13.662;2022-11-21T04:58:15;2.50;;;2.30;;
25163;SDS011;13440;50.860;13.662;2022-11-21T05:00:40;3.30;;;2.88;;
25163;SDS011;13440;50.860;13.662;2022-11-21T05:03:06;3.67;;;3.20;;
25163;SDS011;13440;50.860;13.662;2022-11-21T05:05:31;2.65;;;1.90;;
25163;SDS011;13440;50.860;13.662;2022-11-21T05:07:56;2.72;;;1.70;;
25163;SDS011;13440;50.860;13.662;2022-11-21T05:10:22;3.45;;;1.92;;
25163;SDS011;13440;50.860;13.662;2022-11-21T05:12:47;3.22;;;1.80;;
25163;SDS011;13440;50.860;13.662;2022-11-21T05:15:31;4.35;;;2.30;;
25163;SDS011;13440;50.860;13.662;2022-11-21T05:17:59;3.30;;;2.17;;
25163;SDS011;13440;50.860;13.662;2022-11-21T05:20:24;2.80;;;1.33;;
25163;SDS011;13440;50.860;13.662;2022-11-21T05:22:50;2.78;;;1.73;;
25163;SDS011;13440;50.860;13.662;2022-11-21T05:25:16;3.10;;;1.60;;
25163;SDS011;13440;50.860;13.662;2022-11-21T05:27:41;2.28;;;1.73;;
25163;SDS011;13440;50.860;13.662;2022-11-21T05:30:06;3.70;;;2.20;;
25163;SDS011;13440;50.860;13.662;2022-11-21T05:32:32;2.67;;;1.63;;
25163;SDS011;13440;50.860;13.662;2022-11-21T05:34:57;1.00;;;0.90;;
25163;SDS011;13440;50.860;13.662;2022-11-21T05:37:22;1.52;;;0.90;;
25163;SDS011;13440;50.860;13.662;2022-11-21T05:39:47;1.13;;;1.00;;
25163;SDS011;13440;50.860;13.662;2022-11-21T05:42:13;1.58;;;1.20;;
25163;SDS011;13440;50.860;13.662;2022-11-21T05:44:38;2.72;;;1.90;;
25163;SDS011;13440;50.860;13.662;2022-11-21T05:47:03;1.65;;;1.35;;
25163;SDS011;13440;50.860;13.662;2022-11-21T05:49:28;2.50;;;1.70;;
25163;SDS011;13440;50.860;13.662;2022-11-21T05:51:54;2.35;;;1.20;;
25163;SDS011;13440;50.860;13.662;2022-11-21T05:54:19;35.15;;;19.95;;
25163;SDS011;13440;50.860;13.662;2022-11-21T05:56:44;1.20;;;1.10;;
25163;SDS011;13440;50.860;13.662;2022-11-21T05:59:09;2.83;;;2.10;;
25163;SDS011;13440;50.860;13.662;2022-11-21T06:01:35;2.25;;;1.70;;
25163;SDS011;13440;50.860;13.662;2022-11-21T06:04:19;2.80;;;2.10;;
25163;SDS011;13440;50.860;13.662;2022-11-21T06:06:44;4.60;;;2.90;;
25163;SDS011;13440;50.860;13.662;2022-11-21T06:09:10;2.38;;;1.60;;
25163;SDS011;13440;50.860;13.662;2022-11-21T06:11:35;3.03;;;2.00;;
25163;SDS011;13440;50.860;13.662;2022-11-21T06:14:01;1.73;;;1.63;;
25163;SDS011;13440;50.860;13.662;2022-11-21T06:16:26;1.40;;;1.30;;
25163;SDS011;13440;50.860;13.662;2022-11-21T06:18:52;1.00;;;1.00;;
25163;SDS011;13440;50.860;13.662;2022-11-21T06:21:18;1.10;;;1.05;;
25163;SDS011;13440;50.860;13.662;2022-11-21T06:23:44;2.63;;;1.90;;
25163;SDS011;13440;50.860;13.662;2022-11-21T06:26:11;2.25;;;1.70;;
25163;SDS011;13440;50.860;13.662;2022-11-21T06:28:37;1.88;;;1.52;;
25163;SDS011;13440;50.860;13.662;2022-11-21T06:31:07;1.60;;;1.38;;
25163;SDS011;13440;50.860;13.662;2022-11-21T06:33:32;1.60;;;1.50;;
25163;SDS011;13440;50.860;13.662;2022-11-21T06:36:02;1.50;;;1.40;;
25163;SDS011;13440;50.860;13.662;2022-11-21T06:38:27;2.70;;;1.70;;
25163;SDS011;13440;50.860;13.662;2022-11-21T06:40:52;3.30;;;1.80;;
25163;SDS011;13440;50.860;13.662;2022-11-21T06:43:18;1.58;;;1.48;;
25163;SDS011;13440;50.860;13.662;2022-11-21T06:45:43;2.78;;;1.80;;
25163;SDS011;13440;50.860;13.662;2022-11-21T06:48:08;2.90;;;1.75;;
25163;SDS011;13440;50.860;13.662;2022-11-21T06:50:33;3.88;;;2.00;;
25163;SDS011;13440;50.860;13.662;2022-11-21T06:52:59;1.75;;;1.48;;
25163;SDS011;13440;50.860;13.662;2022-11-21T06:55:25;1.80;;;1.70;;
25163;SDS011;13440;50.860;13.662;2022-11-21T06:57:52;2.88;;;1.80;;
25163;SDS011;13440;50.860;13.662;2022-11-21T07:00:17;5.75;;;3.10;;
25163;SDS011;13440;50.860;13.662;2022-11-21T07:02:42;4.40;;;3.85;;
25163;SDS011;13440;50.860;13.662;2022-11-21T07:05:08;6.03;;;4.00;;
25163;SDS011;13440;50.860;13.662;2022-11-21T07:07:33;5.35;;;3.92;;
25163;SDS011;13440;50.860;13.662;2022-11-21T07:09:58;2.47;;;2.00;;
25163;SDS011;13440;50.860;13.662;2022-11-21T07:12:24;2.25;;;2.05;;
25163;SDS011;13440;50.860;13.662;2022-11-21T07:15:08;1.55;;;1.45;;
25163;SDS011;13440;50.860;13.662;2022-11-21T07:17:33;1.80;;;1.70;;
25163;SDS011;13440;50.860;13.662;2022-11-21T07:19:58;1.92;;;1.80;;
25163;SDS011;13440;50.860;13.662;2022-11-21T07:22:24;1.80;;;1.70;;
25163;SDS011;13440;50.860;13.662;2022-11-21T07:24:49;1.80;;;1.70;;
25163;SDS011;13440;50.860;13.662;2022-11-21T07:27:14;1.90;;;1.80;;
25163;SDS011;13440;50.860;13.662;2022-11-21T07:29:39;2.05;;;1.90;;
25163;SDS011;13440;50.860;13.662;2022-11-21T07:32:05;2.35;;;2.15;;
25163;SDS011;13440;50.860;13.662;2022-11-21T07:34:30;2.33;;;2.10;;
25163;SDS011;13440;50.860;13.662;2022-11-21T07:36:55;1.90;;;1.80;;
25163;SDS011;13440;50.860;13.662;2022-11-21T07:39:20;1.90;;;1.80;;
25163;SDS011;13440;50.860;13.662;2022-11-21T07:41:46;2.00;;;1.88;;
25163;SDS011;13440;50.860;13.662;2022-11-21T07:44:11;1.98;;;1.88;;
25163;SDS011;13440;50.860;13.662;2022-11-21T07:46:36;1.10;;;1.10;;
25163;SDS011;13440;50.860;13.662;2022-11-21T07:49:01;1.00;;;0.90;;
25163;SDS011;13440;50.860;13.662;2022-11-21T07:51:26;0.77;;;0.77;;
25163;SDS011;13440;50.860;13.662;2022-11-21T07:53:52;0.80;;;0.80;;
25163;SDS011;13440;50.860;13.662;2022-11-21T07:56:17;0.82;;;0.82;;
25163;SDS011;13440;50.860;13.662;2022-11-21T07:58:43;2.05;;;1.85;;
25163;SDS011;13440;50.860;13.662;2022-11-21T08:01:08;2.10;;;1.90;;
25163;SDS011;13440;50.860;13.662;2022-11-21T08:03:33;2.25;;;2.05;;
25163;SDS011;13440;50.860;13.662;2022-11-21T08:06:02;2.50;;;2.30;;
25163;SDS011;13440;50.860;13.662;2022-11-21T08:08:28;2.15;;;1.95;;
25163;SDS011;13440;50.860;13.662;2022-11-21T08:10:53;2.33;;;2.13;;
25163;SDS011;13440;50.860;13.662;2022-11-21T08:13:18;3.75;;;2.20;;
25163;SDS011;13440;50.860;13.662;2022-11-21T08:15:44;2.15;;;2.00;;
25163;SDS011;13440;50.860;13.662;2022-11-21T08:18:09;2.17;;;1.98;;
25163;SDS011;13440;50.860;13.662;2022-11-21T08:20:35;2.00;;;1.90;;
25163;SDS011;13440;50.860;13.662;2022-11-21T08:23:01;2.55;;;2.35;;
25163;SDS011;13440;50.860;13.662;2022-11-21T08:25:26;2.85;;;2.55;;
25163;SDS011;13440;50.860;13.662;2022-11-21T08:27:55;2.60;;;2.35;;
25163;SDS011;13440;50.860;13.662;2022-11-21T08:30:20;2.33;;;2.13;;
25163;SDS011;13440;50.860;13.662;2022-11-21T08:32:45;2.08;;;1.98;;
25163;SDS011;13440;50.860;13.662;2022-11-21T08:35:10;2.92;;;2.63;;
25163;SDS011;13440;50.860;13.662;2022-11-21T08:37:36;3.28;;;2.97;;
25163;SDS011;13440;50.860;13.662;2022-11-21T08:40:01;2.75;;;2.55;;
25163;SDS011;13440;50.860;13.662;2022-11-21T08:42:27;3.28;;;2.97;;
25163;SDS011;13440;50.860;13.662;2022-11-21T08:44:52;3.50;;;3.20;;
25163;SDS011;13440;50.860;13.662;2022-11-21T08:47:17;3.25;;;2.95;;
25163;SDS011;13440;50.860;13.662;2022-11-21T08:49:44;3.60;;;3.30;;
25163;SDS011;13440;50.860;13.662;2022-11-21T08:52:09;3.88;;;3.33;;
25163;SDS011;13440;50.860;13.662;2022-11-21T08:54:35;4.13;;;3.72;;
25163;SDS011;13440;50.860;13.662;2022-11-21T08:57:00;4.20;;;3.80;;
25163;SDS011;13440;50.860;13.662;2022-11-21T08:59:25;4.07;;;3.50;;
25163;SDS011;13440;50.860;13.662;2022-11-21T09:01:50;4.07;;;3.67;;
25163;SDS011;13440;50.860;13.662;2022-11-21T09:04:17;4.07;;;3.67;;
25163;SDS011;13440;50.860;13.662;2022-11-21T09:06:42;5.25;;;4.55;;
25163;SDS011;13440;50.860;13.662;2022-11-21T09:09:07;5.22;;;4.45;;
25163;SDS011;13440;50.860;13.662;2022-11-21T09:11:33;7.78;;;5.90;;
25163;SDS011;13440;50.860;13.662;2022-11-21T09:13:59;6.93;;;5.63;;
25163;SDS011;13440;50.860;13.662;2022-11-21T09:16:43;6.38;;;5.45;;
25163;SDS011;13440;50.860;13.662;2022-11-21T09:19:26;4.95;;;4.25;;
25163;SDS011;13440;50.860;13.662;2022-11-21T09:21:52;8.23;;;6.25;;
25163;SDS011;13440;50.860;13.662;2022-11-21T09:24:17;10.50;;;7.70;;
25163;SDS011;13440;50.860;13.662;2022-11-21T09:26:43;11.50;;;8.32;;
25163;SDS011;13440;50.860;13.662;2022-11-21T09:29:08;11.32;;;8.70;;
25163;SDS011;13440;50.860;13.662;2022-11-21T09:31:39;12.27;;;9.48;;
25163;SDS011;13440;50.860;13.662;2022-11-21T09:34:04;12.73;;;9.35;;
25163;SDS011;13440;50.860;13.662;2022-11-21T09:36:30;14.18;;;10.02;;
25163;SDS011;13440;50.860;13.662;2022-11-21T09:38:55;16.00;;;11.10;;
25163;SDS011;13440;50.860;13.662;2022-11-21T09:49:53;17.65;;;12.55;;
25163;SDS011;13440;50.860;13.662;2022-11-21T09:52:19;20.05;;;13.73;;
25163;SDS011;13440;50.860;13.662;2022-11-21T09:54:47;23.05;;;14.13;;
25163;SDS011;13440;50.860;13.662;2022-11-21T09:57:14;17.27;;;12.07;;
25163;SDS011;13440;50.860;13.662;2022-11-21T09:59:41;21.83;;;15.07;;
25163;SDS011;13440;50.860;13.662;2022-11-21T10:02:17;22.05;;;15.32;;
25163;SDS011;13440;50.860;13.662;2022-11-21T10:04:42;20.65;;;14.52;;
25163;SDS011;13440;50.860;13.662;2022-11-21T10:17:34;21.70;;;14.52;;
25163;SDS011;13440;50.860;13.662;2022-11-21T10:25:31;24.63;;;15.82;;
25163;SDS011;13440;50.860;13.662;2022-11-21T10:35:54;22.35;;;13.80;;
25163;SDS011;13440;50.860;13.662;2022-11-21T10:38:25;28.73;;;17.90;;
25163;SDS011;13440;50.860;13.662;2022-11-21T10:40:54;28.98;;;18.00;;
25163;SDS011;13440;50.860;13.662;2022-11-21T10:43:28;28.30;;;17.50;;
25163;SDS011;13440;50.860;13.662;2022-11-21T10:46:13;25.88;;;16.77;;
25163;SDS011;13440;50.860;13.662;2022-11-21T10:48:38;25.23;;;16.35;;
25163;SDS011;13440;50.860;13.662;2022-11-21T10:51:09;23.30;;;15.20;;
25163;SDS011;13440;50.860;13.662;2022-11-21T10:53:36;25.95;;;15.85;;
25163;SDS011;13440;50.860;13.662;2022-11-21T10:56:20;21.27;;;14.02;;
25163;SDS011;13440;50.860;13.662;2022-11-21T10:58:48;21.65;;;15.02;;
25163;SDS011;13440;50.860;13.662;2022-11-21T11:06:32;26.08;;;15.65;;
25163;SDS011;13440;50.860;13.662;2022-11-21T11:08:59;20.83;;;12.80;;
25163;SDS011;13440;50.860;13.662;2022-11-21T11:11:24;19.67;;;12.30;;
25163;SDS011;13440;50.860;13.662;2022-11-21T11:14:01;16.90;;;10.65;;
25163;SDS011;13440;50.860;13.662;2022-11-21T11:16:28;16.70;;;10.93;;
25163;SDS011;13440;50.860;13.662;2022-11-21T11:18:55;16.20;;;11.30;;
25163;SDS011;13440;50.860;13.662;2022-11-21T11:21:26;17.13;;;11.57;;
25163;SDS011;13440;50.860;13.662;2022-11-21T11:23:52;18.88;;;12.30;;
25163;SDS011;13440;50.860;13.662;2022-11-21T11:26:19;20.33;;;12.68;;
25163;SDS011;13440;50.860;13.662;2022-11-21T11:28:44;17.60;;;12.45;;
25163;SDS011;13440;50.860;13.662;2022-11-21T11:31:09;19.75;;;13.02;;
25163;SDS011;13440;50.860;13.662;2022-11-21T11:33:36;22.77;;;14.45;;
25163;SDS011;13440;50.860;13.662;2022-11-21T11:38:32;24.85;;;15.50;;
25163;SDS011;13440;50.860;13.662;2022-11-21T11:40:59;25.23;;;15.68;;
25163;SDS011;13440;50.860;13.662;2022-11-21T11:43:43;24.08;;;14.52;;
25163;SDS011;13440;50.860;13.662;2022-11-21T11:49:32;26.02;;;15.65;;
25163;SDS011;13440;50.860;13.662;2022-11-21T11:52:21;28.48;;;15.75;;
25163;SDS011;13440;50.860;13.662;2022-11-21T11:54:48;26.38;;;15.80;;
25163;SDS011;13440;50.860;13.662;2022-11-21T11:57:15;26.65;;;15.80;;
25163;SDS011;13440;50.860;13.662;2022-11-21T11:59:43;30.75;;;17.45;;
25163;SDS011;13440;50.860;13.662;2022-11-21T12:02:15;30.15;;;16.83;;
25163;SDS011;13440;50.860;13.662;2022-11-21T12:04:44;26.65;;;16.58;;
25163;SDS011;13440;50.860;13.662;2022-11-21T12:07:14;31.90;;;17.92;;
25163;SDS011;13440;50.860;13.662;2022-11-21T12:09:51;30.60;;;17.15;;
25163;SDS011;13440;50.860;13.662;2022-11-21T12:17:32;25.83;;;14.90;;
25163;SDS011;13440;50.860;13.662;2022-11-21T12:19:59;27.92;;;15.95;;
25163;SDS011;13440;50.860;13.662;2022-11-21T12:22:26;29.38;;;16.92;;
25163;SDS011;13440;50.860;13.662;2022-11-21T12:24:52;26.00;;;14.93;;
25163;SDS011;13440;50.860;13.662;2022-11-21T12:27:35;21.80;;;13.43;;
25163;SDS011;13440;50.860;13.662;2022-11-21T12:32:55;23.63;;;14.00;;
25163;SDS011;13440;50.860;13.662;2022-11-21T12:35:25;22.85;;;13.82;;
25163;SDS011;13440;50.860;13.662;2022-11-21T12:53:40;18.58;;;12.20;;
25163;SDS011;13440;50.860;13.662;2022-11-21T13:01:45;19.17;;;12.35;;
25163;SDS011;13440;50.860;13.662;2022-11-21T13:04:16;23.42;;;16.08;;
25163;SDS011;13440;50.860;13.662;2022-11-21T13:06:43;20.10;;;13.07;;
25163;SDS011;13440;50.860;13.662;2022-11-21T13:09:12;18.63;;;12.25;;
25163;SDS011;13440;50.860;13.662;2022-11-21T13:11:43;20.88;;;13.07;;
25163;SDS011;13440;50.860;13.662;2022-11-21T13:19:33;21.02;;;13.65;;
25163;SDS011;13440;50.860;13.662;2022-11-21T13:22:00;20.33;;;13.07;;
25163;SDS011;13440;50.860;13.662;2022-11-21T13:25:08;19.38;;;12.93;;
25163;SDS011;13440;50.860;13.662;2022-11-21T13:32:44;20.08;;;12.73;;
25163;SDS011;13440;50.860;13.662;2022-11-21T13:45:37;21.00;;;13.40;;
25163;SDS011;13440;50.860;13.662;2022-11-21T13:48:05;19.05;;;13.05;;
25163;SDS011;13440;50.860;13.662;2022-11-21T13:56:29;21.15;;;15.10;;
25163;SDS011;13440;50.860;13.662;2022-11-21T14:06:13;24.80;;;14.65;;
25163;SDS011;13440;50.860;13.662;2022-11-21T14:08:42;23.63;;;15.75;;
25163;SDS011;13440;50.860;13.662;2022-11-21T14:11:20;24.63;;;15.90;;
25163;SDS011;13440;50.860;13.662;2022-11-21T14:13:46;22.77;;;14.85;;
25163;SDS011;13440;50.860;13.662;2022-11-21T14:18:56;21.77;;;13.77;;
25163;SDS011;13440;50.860;13.662;2022-11-21T14:21:28;22.42;;;14.52;;
25163;SDS011;13440;50.860;13.662;2022-11-21T14:23:55;22.38;;;14.65;;
25163;SDS011;13440;50.860;13.662;2022-11-21T14:26:21;24.00;;;15.30;;
25163;SDS011;13440;50.860;13.662;2022-11-21T14:28:49;25.85;;;16.45;;
25163;SDS011;13440;50.860;13.662;2022-11-21T14:31:14;24.40;;;15.52;;
25163;SDS011;13440;50.860;13.662;2022-11-21T14:33:40;26.33;;;16.35;;
25163;SDS011;13440;50.860;13.662;2022-11-21T14:38:33;23.38;;;16.02;;
25163;SDS011;13440;50.860;13.662;2022-11-21T14:41:21;26.98;;;16.55;;
25163;SDS011;13440;50.860;13.662;2022-11-21T14:43:48;21.67;;;15.35;;
25163;SDS011;13440;50.860;13.662;2022-11-21T14:46:14;27.67;;;17.58;;
25163;SDS011;13440;50.860;13.662;2022-11-21T14:48:40;23.67;;;16.27;;
25163;SDS011;13440;50.860;13.662;2022-11-21T14:51:07;27.13;;;17.52;;
25163;SDS011;13440;50.860;13.662;2022-11-21T14:53:34;25.20;;;17.80;;
25163;SDS011;13440;50.860;13.662;2022-11-21T14:55:59;25.33;;;17.00;;
25163;SDS011;13440;50.860;13.662;2022-11-21T14:58:24;25.45;;;16.85;;
25163;SDS011;13440;50.860;13.662;2022-11-21T15:01:06;24.10;;;16.48;;
25163;SDS011;13440;50.860;13.662;2022-11-21T15:03:32;24.83;;;17.40;;
25163;SDS011;13440;50.860;13.662;2022-11-21T15:05:58;27.80;;;16.92;;
25163;SDS011;13440;50.860;13.662;2022-11-21T15:08:23;25.55;;;17.00;;
25163;SDS011;13440;50.860;13.662;2022-11-21T15:10:49;25.90;;;17.08;;
25163;SDS011;13440;50.860;13.662;2022-11-21T15:13:14;27.17;;;16.80;;
25163;SDS011;13440;50.860;13.662;2022-11-21T15:15:41;28.65;;;16.30;;
25163;SDS011;13440;50.860;13.662;2022-11-21T15:18:23;28.27;;;17.63;;
25163;SDS011;13440;50.860;13.662;2022-11-21T15:20:50;24.88;;;15.77;;
25163;SDS011;13440;50.860;13.662;2022-11-21T15:23:32;26.70;;;17.23;;
25163;SDS011;13440;50.860;13.662;2022-11-21T15:25:58;25.63;;;16.35;;
25163;SDS011;13440;50.860;13.662;2022-11-21T15:28:24;29.30;;;18.50;;
25163;SDS011;13440;50.860;13.662;2022-11-21T15:36:09;40.23;;;22.97;;
25163;SDS011;13440;50.860;13.662;2022-11-21T15:39:10;30.88;;;19.42;;
25163;SDS011;13440;50.860;13.662;2022-11-21T15:41:31;28.67;;;17.80;;
25163;SDS011;13440;50.860;13.662;2022-11-21T15:46:25;32.35;;;18.23;;
25163;SDS011;13440;50.860;13.662;2022-11-21T15:48:55;28.83;;;17.98;;
25163;SDS011;13440;50.860;13.662;2022-11-21T15:51:21;32.15;;;18.73;;
25163;SDS011;13440;50.860;13.662;2022-11-21T15:53:48;28.23;;;17.27;;
25163;SDS011;13440;50.860;13.662;2022-11-21T15:56:14;30.23;;;18.27;;
25163;SDS011;13440;50.860;13.662;2022-11-21T15:58:39;31.08;;;18.55;;
25163;SDS011;13440;50.860;13.662;2022-11-21T16:01:05;32.80;;;18.55;;
25163;SDS011;13440;50.860;13.662;2022-11-21T16:03:30;35.80;;;18.88;;
25163;SDS011;13440;50.860;13.662;2022-11-21T16:05:56;33.08;;;18.27;;
25163;SDS011;13440;50.860;13.662;2022-11-21T16:08:21;33.50;;;19.17;;
25163;SDS011;13440;50.860;13.662;2022-11-21T16:10:46;35.67;;;19.15;;
25163;SDS011;13440;50.860;13.662;2022-11-21T16:13:11;32.45;;;19.05;;
25163;SDS011;13440;50.860;13.662;2022-11-21T16:15:37;35.22;;;18.92;;
25163;SDS011;13440;50.860;13.662;2022-11-21T16:18:02;32.42;;;19.98;;
25163;SDS011;13440;50.860;13.662;2022-11-21T16:20:28;34.72;;;19.70;;
25163;SDS011;13440;50.860;13.662;2022-11-21T16:22:53;35.53;;;21.65;;
25163;SDS011;13440;50.860;13.662;2022-11-21T16:25:18;34.53;;;20.50;;
25163;SDS011;13440;50.860;13.662;2022-11-21T16:27:44;40.30;;;23.35;;
25163;SDS011;13440;50.860;13.662;2022-11-21T16:30:09;37.75;;;22.30;;
25163;SDS011;13440;50.860;13.662;2022-11-21T16:32:34;40.50;;;24.05;;